createdAt,value
2022-09-22T00:00:59.492Z,93.92
2022-09-22T00:03:27.990Z,93.90
2022-09-22T00:06:01.458Z,94.00
2022-09-22T00:08:32.207Z,94.04
2022-09-22T00:11:05.413Z,93.87
2022-09-22T00:13:36.473Z,93.85
2022-09-22T00:16:04.810Z,93.82
2022-09-22T00:18:32.790Z,93.85
2022-09-22T00:21:08.153Z,93.83
2022-09-22T00:23:38.534Z,93.99
2022-09-22T00:26:07.942Z,93.92
2022-09-22T00:28:39.838Z,93.93
2022-09-22T00:31:08.336Z,93.77
2022-09-22T00:33:38.013Z,93.81
2022-09-22T00:36:06.210Z,93.73
2022-09-22T00:38:34.480Z,93.68
2022-09-22T00:41:03.054Z,93.62
2022-09-22T00:43:32.445Z,93.88
2022-09-22T00:46:05.250Z,93.79
2022-09-22T00:48:35.881Z,93.92
2022-09-22T00:51:06.000Z,93.95
2022-09-22T00:53:35.523Z,94.16
2022-09-22T00:56:07.073Z,94.39
2022-09-22T00:58:37.088Z,94.48
2022-09-22T01:01:09.346Z,94.73
2022-09-22T01:03:37.943Z,94.81
2022-09-22T01:06:09.454Z,94.77
2022-09-22T01:08:38.652Z,94.62
2022-09-22T01:11:07.478Z,94.67
2022-09-22T01:13:41.751Z,94.67
2022-09-22T01:16:23.752Z,94.56
2022-09-22T01:19:01.247Z,94.41
2022-09-22T01:21:38.879Z,94.25
2022-09-22T01:24:46.807Z,94.25
2022-09-22T01:27:47.987Z,94.06
2022-09-22T01:30:21.029Z,94.17
2022-09-22T01:32:57.475Z,94.07
2022-09-22T01:35:29.245Z,94.04
2022-09-22T01:38:02.342Z,94.06
2022-09-22T01:40:34.391Z,94.05
2022-09-22T01:43:09.029Z,94.06
2022-09-22T01:45:40.109Z,94.11
2022-09-22T01:48:13.803Z,94.30
2022-09-22T01:50:45.017Z,94.49
2022-09-22T01:53:15.752Z,94.30
2022-09-22T01:55:47.305Z,94.26
2022-09-22T01:58:18.564Z,94.32
2022-09-22T02:00:50.848Z,94.26
2022-09-22T02:03:19.525Z,94.47
2022-09-22T02:05:50.772Z,94.57
2022-09-22T02:08:21.835Z,94.54
2022-09-22T02:10:50.510Z,94.51
2022-09-22T02:13:19.640Z,94.56
2022-09-22T02:16:01.626Z,94.49
2022-09-22T02:18:33.340Z,94.35
2022-09-22T02:21:02.455Z,94.36
2022-09-22T02:23:32.162Z,94.52
2022-09-22T02:26:01.933Z,94.43
2022-09-22T02:28:31.386Z,94.46
2022-09-22T02:31:19.598Z,94.40
2022-09-22T02:33:49.122Z,94.43
2022-09-22T02:36:38.713Z,94.54
2022-09-22T02:39:09.834Z,94.61
2022-09-22T02:41:47.230Z,94.65
2022-09-22T02:44:20.126Z,94.57
2022-09-22T02:46:52.344Z,94.56
2022-09-22T02:49:20.875Z,94.51
2022-09-22T02:51:49.868Z,94.84
2022-09-22T02:54:17.935Z,94.85
2022-09-22T02:56:46.114Z,94.93
2022-09-22T02:59:14.172Z,94.85
2022-09-22T03:01:42.328Z,94.71
2022-09-22T03:04:11.702Z,94.69
2022-09-22T03:06:39.744Z,94.68
2022-09-22T03:09:07.786Z,94.72
2022-09-22T03:11:35.860Z,94.62
2022-09-22T03:14:03.834Z,94.55
2022-09-22T03:16:31.797Z,94.69
2022-09-22T03:19:00.011Z,94.65
2022-09-22T03:21:29.375Z,94.91
2022-09-22T03:23:57.552Z,94.80
2022-09-22T03:26:25.623Z,94.82
2022-09-22T03:28:53.624Z,94.69
2022-09-22T03:31:21.757Z,94.62
2022-09-22T03:33:52.696Z,94.95
2022-09-22T03:36:21.089Z,95.01
2022-09-22T03:38:52.027Z,95.37
2022-09-22T03:41:20.016Z,96.03
2022-09-22T03:43:47.962Z,96.12
2022-09-22T03:46:16.570Z,95.94
2022-09-22T03:48:45.402Z,95.92
2022-09-22T03:51:13.726Z,95.80
2022-09-22T03:53:41.679Z,95.67
2022-09-22T03:56:13.612Z,95.62
2022-09-22T03:58:42.142Z,95.56
2022-09-22T04:01:11.231Z,95.48
2022-09-22T04:03:40.067Z,95.50
2022-09-22T04:06:08.347Z,95.70
2022-09-22T04:08:36.719Z,95.70
2022-09-22T04:11:05.508Z,95.57
2022-09-22T04:13:35.388Z,95.65
2022-09-22T04:16:03.764Z,95.65
2022-09-22T04:18:31.878Z,95.54
2022-09-22T04:21:01.067Z,95.58
2022-09-22T04:23:29.124Z,95.63
2022-09-22T04:25:57.126Z,95.57
2022-09-22T04:28:25.137Z,95.59
2022-09-22T04:30:54.574Z,95.63
2022-09-22T04:33:23.436Z,95.86
2022-09-22T04:35:52.131Z,95.69
2022-09-22T04:38:20.421Z,95.86
2022-09-22T04:40:49.643Z,95.75
2022-09-22T04:43:17.904Z,95.80
2022-09-22T04:45:47.171Z,95.79
2022-09-22T04:48:17.227Z,95.75
2022-09-22T04:50:47.962Z,95.75
2022-09-22T04:53:16.849Z,95.76
2022-09-22T04:55:45.308Z,95.94
2022-09-22T04:58:13.940Z,95.90
2022-09-22T05:00:42.094Z,95.98
2022-09-22T05:03:10.568Z,95.99
2022-09-22T05:05:40.572Z,95.86
2022-09-22T05:08:10.162Z,95.86
2022-09-22T05:10:38.092Z,95.92
2022-09-22T05:13:07.075Z,96.23
2022-09-22T05:15:35.082Z,96.55
2022-09-22T05:18:03.166Z,96.94
2022-09-22T05:20:31.142Z,97.33
2022-09-22T05:23:00.560Z,97.49
2022-09-22T05:25:28.511Z,97.53
2022-09-22T05:27:57.227Z,97.58
2022-09-22T05:30:45.264Z,97.54
2022-09-22T05:33:13.231Z,97.56
2022-09-22T05:35:41.292Z,97.63
2022-09-22T05:38:10.588Z,97.65
2022-09-22T05:40:38.626Z,97.70
2022-09-22T05:43:06.723Z,97.69
2022-09-22T05:45:34.729Z,97.72
2022-09-22T05:48:02.964Z,97.77
2022-09-22T05:50:31.247Z,97.54
2022-09-22T05:53:06.292Z,97.54
2022-09-22T05:55:36.186Z,97.45
2022-09-22T05:58:04.862Z,97.36
2022-09-22T06:03:29.242Z,96.86
2022-09-22T06:05:57.591Z,96.65
2022-09-22T06:08:25.537Z,96.49
2022-09-22T06:10:54.831Z,96.27
2022-09-22T06:13:22.813Z,96.35
2022-09-22T06:15:51.072Z,95.79
2022-09-22T06:18:24.158Z,95.24
2022-09-22T06:20:52.642Z,93.76
2022-09-22T06:23:21.285Z,93.00
2022-09-22T06:25:49.228Z,91.55
2022-09-22T06:28:18.544Z,90.73
2022-09-22T06:30:46.849Z,89.30
2022-09-22T06:33:14.779Z,87.34
2022-09-22T06:35:43.143Z,85.65
2022-09-22T06:38:14.732Z,82.89
2022-09-22T06:40:43.332Z,80.13
2022-09-22T06:43:20.315Z,77.31
2022-09-22T06:45:50.898Z,75.03
2022-09-22T06:48:18.995Z,73.41
2022-09-22T06:50:49.319Z,71.44
2022-09-22T06:53:17.455Z,70.11
2022-09-22T06:55:45.769Z,68.90
2022-09-22T06:58:14.717Z,67.90
2022-09-22T07:00:44.344Z,66.64
2022-09-22T07:03:20.706Z,66.75
2022-09-22T07:05:56.609Z,64.80
2022-09-22T07:08:25.488Z,64.01
2022-09-22T07:10:55.291Z,63.36
2022-09-22T07:13:23.564Z,62.33
2022-09-22T07:15:51.576Z,62.49
2022-09-22T07:18:20.933Z,61.65
2022-09-22T07:20:49.955Z,60.55
2022-09-22T07:23:21.358Z,59.58
2022-09-22T07:25:56.304Z,58.99
2022-09-22T07:28:25.984Z,58.88
2022-09-22T07:30:53.996Z,57.87
2022-09-22T07:33:24.029Z,57.21
2022-09-22T07:36:01.988Z,57.14
2022-09-22T07:38:33.895Z,56.94
2022-09-22T07:41:02.038Z,56.15
2022-09-22T07:43:30.068Z,56.06
2022-09-22T07:45:58.191Z,55.84
2022-09-22T07:48:37.650Z,54.77
2022-09-22T07:51:12.969Z,53.78
2022-09-22T07:53:44.942Z,53.40
2022-09-22T07:56:15.062Z,53.22
2022-09-22T07:59:04.997Z,53.12
2022-09-22T08:01:34.784Z,52.69
2022-09-22T08:04:04.941Z,51.95
2022-09-22T08:06:35.045Z,52.49
2022-09-22T08:09:06.857Z,50.72
2022-09-22T08:11:35.101Z,52.47
2022-09-22T08:14:04.749Z,54.02
2022-09-22T08:16:34.511Z,54.20
2022-09-22T08:19:10.573Z,55.61
2022-09-22T08:21:47.947Z,55.48
2022-09-22T08:24:21.214Z,54.41
2022-09-22T08:26:50.327Z,54.27
2022-09-22T08:29:18.486Z,53.12
2022-09-22T08:31:47.477Z,53.72
2022-09-22T08:34:17.927Z,52.27
2022-09-22T08:36:48.532Z,50.29
2022-09-22T08:39:17.947Z,51.31
2022-09-22T08:41:56.456Z,50.74
2022-09-22T08:44:26.468Z,48.62
2022-09-22T08:46:55.966Z,50.49
2022-09-22T08:49:45.022Z,48.10
2022-09-22T08:52:20.016Z,51.96
2022-09-22T08:54:48.878Z,54.32
2022-09-22T08:57:28.151Z,53.59
2022-09-22T09:00:01.058Z,53.75
2022-09-22T09:02:36.008Z,53.95
2022-09-22T09:05:29.171Z,52.71
2022-09-22T09:08:01.766Z,53.17
2022-09-22T09:10:40.735Z,53.33
2022-09-22T09:13:22.155Z,55.36
2022-09-22T09:16:00.687Z,56.75
2022-09-22T09:18:33.096Z,57.92
2022-09-22T09:21:03.960Z,53.75
2022-09-22T09:26:24.278Z,53.32
2022-09-22T09:28:58.061Z,54.01
2022-09-22T09:31:31.447Z,53.35
2022-09-22T09:34:02.828Z,54.00
2022-09-22T09:36:33.792Z,58.63
2022-09-22T09:39:10.112Z,57.96
2022-09-22T09:41:38.545Z,54.05
2022-09-22T09:44:07.135Z,52.30
2022-09-22T09:46:46.079Z,52.52
2022-09-22T09:49:16.027Z,49.00
2022-09-22T09:51:48.657Z,50.01
2022-09-22T09:54:18.087Z,50.00
2022-09-22T09:57:09.739Z,50.51
2022-09-22T09:59:57.330Z,50.11
2022-09-22T10:02:28.590Z,48.59
2022-09-22T10:04:58.511Z,48.57
2022-09-22T10:07:29.030Z,47.64
2022-09-22T10:09:57.500Z,48.30
2022-09-22T10:12:27.916Z,47.36
2022-09-22T10:14:57.292Z,46.46
2022-09-22T10:17:29.048Z,45.79
2022-09-22T10:20:19.879Z,46.72
2022-09-22T10:22:49.810Z,48.53
2022-09-22T10:25:23.990Z,48.14
2022-09-22T10:28:03.272Z,49.58
2022-09-22T10:30:37.116Z,49.62
2022-09-22T10:33:17.183Z,48.64
2022-09-22T10:35:47.450Z,49.34
2022-09-22T10:38:19.788Z,50.73
2022-09-22T10:40:49.132Z,50.40
2022-09-22T10:43:31.275Z,51.76
2022-09-22T10:46:26.546Z,52.04
2022-09-22T10:48:55.983Z,50.96
2022-09-22T10:51:38.819Z,51.22
2022-09-22T10:54:23.303Z,53.25
2022-09-22T10:56:53.266Z,54.51
2022-09-22T10:59:32.584Z,53.64
2022-09-22T11:02:15.267Z,54.57
2022-09-22T11:04:54.520Z,51.69
2022-09-22T11:07:50.474Z,51.78
2022-09-22T11:10:44.453Z,50.80
2022-09-22T11:13:21.053Z,48.82
2022-09-22T11:16:10.231Z,47.85
2022-09-22T11:18:50.200Z,48.64
2022-09-22T11:21:27.248Z,47.39
2022-09-22T11:24:13.098Z,46.57
2022-09-22T11:26:47.653Z,43.18
2022-09-22T11:29:30.470Z,45.56
2022-09-22T11:32:04.901Z,47.14
2022-09-22T11:34:46.702Z,48.44
2022-09-22T11:37:26.871Z,49.87
2022-09-22T11:40:11.215Z,49.51
2022-09-22T11:42:47.698Z,50.66
2022-09-22T11:45:27.911Z,51.31
2022-09-22T11:48:04.036Z,52.00
2022-09-22T11:50:40.239Z,50.37
2022-09-22T11:53:26.122Z,50.22
2022-09-22T11:56:06.390Z,50.47
2022-09-22T11:58:40.928Z,51.33
2022-09-22T12:01:13.290Z,52.28
2022-09-22T12:03:45.096Z,52.25
2022-09-22T12:06:16.180Z,50.34
2022-09-22T12:08:47.214Z,49.61
2022-09-22T12:11:16.621Z,50.93
2022-09-22T12:13:48.258Z,50.97
2022-09-22T12:16:22.514Z,49.63
2022-09-22T12:18:55.104Z,50.56
2022-09-22T12:21:43.402Z,50.93
2022-09-22T12:24:12.391Z,51.28
2022-09-22T12:26:42.287Z,50.84
2022-09-22T12:29:24.056Z,50.39
2022-09-22T12:31:55.367Z,50.35
2022-09-22T12:34:25.647Z,51.21
2022-09-22T12:36:55.711Z,50.92
2022-09-22T12:39:25.891Z,51.02
2022-09-22T12:41:58.155Z,51.07
2022-09-22T12:44:27.921Z,52.54
2022-09-22T12:46:59.085Z,50.59
2022-09-22T12:49:27.029Z,50.19
2022-09-22T12:51:55.228Z,51.22
2022-09-22T12:54:39.577Z,51.59
2022-09-22T12:57:29.212Z,52.54
2022-09-22T13:00:32.245Z,52.03
2022-09-22T13:03:01.896Z,52.75
2022-09-22T13:05:46.544Z,51.46
2022-09-22T13:08:19.491Z,51.42
2022-09-22T13:10:58.690Z,52.48
2022-09-22T13:13:43.767Z,51.30
2022-09-22T13:16:36.214Z,54.35
2022-09-22T13:19:11.245Z,52.20
2022-09-22T13:21:42.360Z,52.79
2022-09-22T13:24:19.529Z,53.86
2022-09-22T13:26:47.564Z,53.36
2022-09-22T13:29:17.038Z,54.66
2022-09-22T13:31:47.758Z,54.45
2022-09-22T13:34:37.281Z,54.17
2022-09-22T13:37:08.217Z,54.25
2022-09-22T13:39:41.234Z,54.58
2022-09-22T13:42:15.124Z,54.66
2022-09-22T13:44:45.512Z,53.34
2022-09-22T13:47:17.852Z,53.43
2022-09-22T13:49:49.579Z,53.27
2022-09-22T13:52:21.441Z,54.08
2022-09-22T13:54:51.438Z,53.93
2022-09-22T13:57:21.694Z,53.50
2022-09-22T13:59:52.123Z,54.37
2022-09-22T14:02:28.183Z,54.03
2022-09-22T14:05:01.714Z,53.19
2022-09-22T14:07:32.332Z,52.26
2022-09-22T14:10:02.258Z,52.34
2022-09-22T14:12:30.966Z,52.22
2022-09-22T14:15:32.356Z,51.86
2022-09-22T14:18:02.392Z,52.15
2022-09-22T14:20:31.224Z,52.41
2022-09-22T14:22:59.223Z,51.77
2022-09-22T14:25:27.270Z,50.85
2022-09-22T14:27:59.290Z,50.90
2022-09-22T14:30:31.145Z,52.17
2022-09-22T14:33:02.220Z,51.11
2022-09-22T14:35:32.705Z,52.63
2022-09-22T14:38:12.357Z,52.92
2022-09-22T14:40:51.465Z,53.07
2022-09-22T14:43:25.062Z,53.37
2022-09-22T14:45:58.086Z,52.77
2022-09-22T14:48:32.338Z,53.19
2022-09-22T14:51:03.726Z,53.61
2022-09-22T14:53:33.588Z,54.20
2022-09-22T14:56:04.187Z,54.58
2022-09-22T14:58:40.170Z,54.60
2022-09-22T15:01:46.389Z,56.12
2022-09-22T15:04:18.777Z,56.31
2022-09-22T15:06:47.932Z,55.32
2022-09-22T15:09:23.527Z,56.60
2022-09-22T15:11:54.877Z,56.68
2022-09-22T15:14:42.420Z,57.28
2022-09-22T15:18:08.640Z,58.13
2022-09-22T15:20:42.509Z,58.39
2022-09-22T15:23:19.136Z,59.55
2022-09-22T15:25:47.907Z,60.03
2022-09-22T15:28:17.840Z,61.33
2022-09-22T15:30:47.603Z,60.89
2022-09-22T15:33:17.470Z,61.37
2022-09-22T15:35:47.984Z,62.87
2022-09-22T15:38:19.414Z,64.39
2022-09-22T15:40:48.782Z,64.67
2022-09-22T15:43:23.077Z,65.09
2022-09-22T15:45:53.895Z,65.62
2022-09-22T15:48:27.646Z,66.07
2022-09-22T15:50:57.823Z,66.08
2022-09-22T15:53:25.896Z,66.20
2022-09-22T15:55:54.685Z,66.87
2022-09-22T15:58:23.901Z,67.55
2022-09-22T16:00:53.196Z,68.05
2022-09-22T16:03:24.017Z,68.76
2022-09-22T16:05:56.696Z,68.63
2022-09-22T16:08:28.883Z,68.88
2022-09-22T16:10:57.510Z,69.13
2022-09-22T16:13:25.643Z,69.06
2022-09-22T16:15:54.185Z,68.73
2022-09-22T16:18:22.421Z,68.65
2022-09-22T16:20:51.860Z,68.55
2022-09-22T16:23:20.524Z,68.88
2022-09-22T16:25:55.026Z,69.66
2022-09-22T16:28:23.024Z,70.45
2022-09-22T16:30:53.631Z,70.88
2022-09-22T16:33:22.053Z,70.41
2022-09-22T16:35:50.011Z,72.27
2022-09-22T16:38:17.974Z,73.12
2022-09-22T16:40:46.036Z,72.88
2022-09-22T16:43:15.473Z,73.19
2022-09-22T16:46:00.815Z,73.18
2022-09-22T16:48:31.651Z,73.78
2022-09-22T16:50:59.990Z,74.14
2022-09-22T16:53:27.919Z,75.22
2022-09-22T16:55:56.020Z,76.22
2022-09-22T16:58:25.385Z,76.85
2022-09-22T17:00:53.324Z,77.41
2022-09-22T17:03:21.330Z,77.53
2022-09-22T17:05:52.004Z,77.44
2022-09-22T17:08:20.905Z,77.80
2022-09-22T17:10:49.216Z,78.37
2022-09-22T17:13:17.950Z,78.91
2022-09-22T17:15:49.093Z,79.51
2022-09-22T17:18:17.046Z,79.87
2022-09-22T17:20:45.120Z,79.96
2022-09-22T17:23:13.093Z,80.45
2022-09-22T17:25:41.099Z,80.79
2022-09-22T17:28:09.123Z,81.30
2022-09-22T17:30:37.104Z,81.79
2022-09-22T17:33:06.593Z,82.07
2022-09-22T17:35:34.556Z,82.09
2022-09-22T17:38:02.558Z,82.51
2022-09-22T17:40:30.624Z,83.36
2022-09-22T17:42:58.673Z,83.83
2022-09-22T17:45:26.590Z,84.17
2022-09-22T17:48:11.974Z,84.28
2022-09-22T17:50:59.088Z,84.71
2022-09-22T17:53:44.392Z,84.70
2022-09-22T17:56:13.190Z,84.83
2022-09-22T17:58:41.409Z,84.70
2022-09-22T18:01:09.850Z,84.98
2022-09-22T18:03:37.779Z,85.15
2022-09-22T18:06:14.547Z,84.97
2022-09-22T18:08:44.643Z,84.81
2022-09-22T18:11:13.634Z,84.86
2022-09-22T18:13:41.580Z,85.12
2022-09-22T18:16:29.264Z,85.47
2022-09-22T18:18:57.421Z,86.25
2022-09-22T18:21:26.827Z,87.26
2022-09-22T18:23:54.983Z,88.10
2022-09-22T18:26:22.915Z,88.32
2022-09-22T18:28:53.997Z,88.17
2022-09-22T18:31:23.383Z,88.23
2022-09-22T18:33:51.614Z,88.64
2022-09-22T18:36:21.487Z,89.31
2022-09-22T18:38:50.952Z,89.99
2022-09-22T18:41:19.875Z,89.69
2022-09-22T18:43:49.453Z,89.48
2022-09-22T18:46:20.682Z,89.62
2022-09-22T18:48:49.911Z,89.93
2022-09-22T18:51:17.896Z,90.58
2022-09-22T18:53:45.864Z,90.33
2022-09-22T18:56:17.244Z,90.26
2022-09-22T18:58:45.148Z,90.40
2022-09-22T19:01:14.018Z,90.58
2022-09-22T19:03:42.250Z,91.38
2022-09-22T19:06:10.156Z,92.25
2022-09-22T19:08:38.214Z,92.42
2022-09-22T19:11:06.371Z,92.28
2022-09-22T19:13:35.800Z,92.24
2022-09-22T19:16:05.045Z,92.35
2022-09-22T19:18:33.159Z,92.57
2022-09-22T19:21:03.954Z,92.33
2022-09-22T19:23:32.410Z,92.18
2022-09-22T19:26:00.502Z,92.20
2022-09-22T19:28:31.465Z,92.36
2022-09-22T19:31:00.868Z,92.59
2022-09-22T19:33:29.100Z,92.37
2022-09-22T19:35:57.148Z,92.26
2022-09-22T19:38:26.263Z,91.94
2022-09-22T19:40:56.209Z,91.83
2022-09-22T19:43:24.502Z,91.70
2022-09-22T19:45:52.666Z,91.68
2022-09-22T19:48:22.443Z,91.67
2022-09-22T19:50:50.431Z,91.85
2022-09-22T19:53:18.348Z,91.84
2022-09-22T19:55:46.474Z,92.04
2022-09-22T19:58:14.420Z,92.45
2022-09-22T20:00:43.656Z,92.48
2022-09-22T20:03:11.812Z,92.55
2022-09-22T20:05:41.793Z,92.53
2022-09-22T20:08:15.856Z,92.51
2022-09-22T20:10:43.872Z,92.58
2022-09-22T20:13:31.907Z,92.61
2022-09-22T20:16:00.348Z,92.71
2022-09-22T20:18:29.890Z,92.58
2022-09-22T20:21:00.355Z,92.51
2022-09-22T20:23:28.294Z,92.68
2022-09-22T20:25:56.267Z,93.50
2022-09-22T20:28:24.273Z,93.66
2022-09-22T20:30:52.262Z,93.50
2022-09-22T20:33:22.576Z,93.52
2022-09-22T20:35:51.311Z,93.60
2022-09-22T20:38:20.758Z,93.59
2022-09-22T20:40:49.608Z,93.66
2022-09-22T20:43:17.589Z,93.62
2022-09-22T20:45:45.645Z,93.51
2022-09-22T20:48:16.688Z,93.55
2022-09-22T20:50:44.970Z,93.73
2022-09-22T20:53:14.426Z,93.78
2022-09-22T20:55:43.722Z,93.95
2022-09-22T20:58:13.245Z,94.08
2022-09-22T21:00:41.519Z,94.19
2022-09-22T21:03:09.922Z,94.13
2022-09-22T21:05:37.984Z,94.23
2022-09-22T21:08:24.002Z,94.40
2022-09-22T21:10:53.340Z,94.39
2022-09-22T21:13:21.296Z,94.54
2022-09-22T21:15:49.327Z,94.57
2022-09-22T21:18:17.902Z,94.58
2022-09-22T21:20:46.238Z,94.57
2022-09-22T21:23:14.319Z,94.49
2022-09-22T21:25:42.364Z,94.28
2022-09-22T21:28:12.691Z,94.50
2022-09-22T21:30:40.804Z,94.72
2022-09-22T21:33:12.611Z,94.99
2022-09-22T21:35:40.848Z,95.20
2022-09-22T21:38:08.778Z,94.98
2022-09-22T21:40:36.843Z,94.81
2022-09-22T21:43:05.088Z,94.68
2022-09-22T21:45:35.475Z,94.52
2022-09-22T21:48:03.463Z,94.74
2022-09-22T21:50:31.462Z,94.94
2022-09-22T21:52:59.423Z,95.04
2022-09-22T21:55:27.562Z,95.32
2022-09-22T21:57:56.344Z,95.26
2022-09-22T22:00:42.408Z,95.22
2022-09-22T22:03:32.072Z,95.41
2022-09-22T22:06:05.308Z,95.52
2022-09-22T22:08:37.074Z,95.41
2022-09-22T22:11:07.811Z,95.36
2022-09-22T22:13:37.105Z,95.39
2022-09-22T22:16:07.546Z,95.41
2022-09-22T22:18:37.143Z,95.42
2022-09-22T22:21:07.140Z,95.36
2022-09-22T22:23:37.332Z,95.52
2022-09-22T22:26:07.677Z,95.63
2022-09-22T22:28:36.261Z,95.66
2022-09-22T22:31:06.430Z,95.64
2022-09-22T22:33:37.405Z,95.65
2022-09-22T22:36:08.196Z,95.65
2022-09-22T22:38:36.761Z,95.72
2022-09-22T22:41:06.324Z,95.77
2022-09-22T22:43:34.379Z,95.72
2022-09-22T22:46:02.551Z,95.66
2022-09-22T22:48:31.411Z,95.69
2022-09-22T22:51:03.461Z,95.59
2022-09-22T22:53:35.939Z,95.68
2022-09-22T22:56:05.692Z,95.61
2022-09-22T22:58:36.607Z,95.61
2022-09-22T23:01:07.903Z,95.59
2022-09-22T23:03:35.973Z,95.54
2022-09-22T23:06:05.374Z,95.50
2022-09-22T23:08:33.348Z,95.43
2022-09-22T23:11:02.544Z,95.32
2022-09-22T23:13:31.123Z,95.29
2022-09-22T23:16:04.422Z,95.31
2022-09-22T23:18:35.285Z,95.26
2022-09-22T23:21:05.285Z,95.19
2022-09-22T23:23:33.896Z,95.14
2022-09-22T23:26:02.882Z,95.02
2022-09-22T23:28:31.628Z,95.02
2022-09-22T23:31:00.753Z,95.06
2022-09-22T23:33:29.009Z,95.04
2022-09-22T23:35:57.779Z,94.97
2022-09-22T23:38:28.806Z,94.98
2022-09-22T23:40:58.351Z,95.03
2022-09-22T23:43:27.443Z,94.97
2022-09-22T23:45:55.955Z,94.98
2022-09-22T23:48:25.138Z,94.96
2022-09-22T23:50:55.063Z,95.02
2022-09-22T23:53:24.833Z,95.06
2022-09-22T23:55:54.168Z,95.00
2022-09-22T23:58:22.201Z,94.99
